sensor_id;sensor_type;location;lat;lon;timestamp;temperature;humidity
51839;DHT22;37886;53.174;6.368;2023-05-07T00:00:38;12.80;99.90
51839;DHT22;37886;53.174;6.368;2023-05-07T00:03:05;12.70;99.90
51839;DHT22;37886;53.174;6.368;2023-05-07T00:05:32;12.70;99.90
51839;DHT22;37886;53.174;6.368;2023-05-07T00:07:57;12.70;99.90
51839;DHT22;37886;53.174;6.368;2023-05-07T00:10:23;12.60;99.90
51839;DHT22;37886;53.174;6.368;2023-05-07T00:12:49;12.60;99.90
51839;DHT22;37886;53.174;6.368;2023-05-07T00:15:14;12.60;99.90
51839;DHT22;37886;53.174;6.368;2023-05-07T00:17:40;12.50;99.90
51839;DHT22;37886;53.174;6.368;2023-05-07T00:20:07;12.60;99.90
51839;DHT22;37886;53.174;6.368;2023-05-07T00:22:33;12.50;99.90
51839;DHT22;37886;53.174;6.368;2023-05-07T00:24:58;12.50;99.90
51839;DHT22;37886;53.174;6.368;2023-05-07T00:27:25;12.50;99.90
51839;DHT22;37886;53.174;6.368;2023-05-07T00:29:50;12.50;99.90
51839;DHT22;37886;53.174;6.368;2023-05-07T00:32:16;12.50;99.90
51839;DHT22;37886;53.174;6.368;2023-05-07T00:34:43;12.40;99.90
51839;DHT22;37886;53.174;6.368;2023-05-07T00:37:09;12.40;99.90
51839;DHT22;37886;53.174;6.368;2023-05-07T00:39:35;12.40;99.90
51839;DHT22;37886;53.174;6.368;2023-05-07T00:42:01;12.40;99.90
51839;DHT22;37886;53.174;6.368;2023-05-07T00:44:28;12.40;99.90
51839;DHT22;37886;53.174;6.368;2023-05-07T00:46:56;12.40;99.90
51839;DHT22;37886;53.174;6.368;2023-05-07T00:49:24;12.40;99.90
51839;DHT22;37886;53.174;6.368;2023-05-07T00:51:52;12.30;99.90
51839;DHT22;37886;53.174;6.368;2023-05-07T00:54:18;12.30;99.90
51839;DHT22;37886;53.174;6.368;2023-05-07T00:56:44;12.30;99.90
51839;DHT22;37886;53.174;6.368;2023-05-07T00:59:11;12.20;99.90
51839;DHT22;37886;53.174;6.368;2023-05-07T01:01:36;12.20;99.90
51839;DHT22;37886;53.174;6.368;2023-05-07T01:04:02;12.20;99.90
51839;DHT22;37886;53.174;6.368;2023-05-07T01:06:29;12.20;99.90
51839;DHT22;37886;53.174;6.368;2023-05-07T01:08:57;12.20;99.90
51839;DHT22;37886;53.174;6.368;2023-05-07T01:11:23;12.20;99.90
51839;DHT22;37886;53.174;6.368;2023-05-07T01:13:50;12.10;99.90
51839;DHT22;37886;53.174;6.368;2023-05-07T01:16:16;12.20;99.90
51839;DHT22;37886;53.174;6.368;2023-05-07T01:18:42;12.10;99.90
51839;DHT22;37886;53.174;6.368;2023-05-07T01:21:11;12.10;99.90
51839;DHT22;37886;53.174;6.368;2023-05-07T01:23:37;12.10;99.90
51839;DHT22;37886;53.174;6.368;2023-05-07T01:26:03;12.10;99.90
51839;DHT22;37886;53.174;6.368;2023-05-07T01:28:29;12.10;99.90
51839;DHT22;37886;53.174;6.368;2023-05-07T01:30:59;12.00;99.90
51839;DHT22;37886;53.174;6.368;2023-05-07T01:33:30;12.00;99.90
51839;DHT22;37886;53.174;6.368;2023-05-07T01:35:57;12.00;99.90
51839;DHT22;37886;53.174;6.368;2023-05-07T01:38:27;12.00;99.90
51839;DHT22;37886;53.174;6.368;2023-05-07T01:40:52;11.90;99.90
51839;DHT22;37886;53.174;6.368;2023-05-07T01:43:19;11.90;99.90
51839;DHT22;37886;53.174;6.368;2023-05-07T01:45:45;11.90;99.90
51839;DHT22;37886;53.174;6.368;2023-05-07T01:48:11;11.90;99.90
51839;DHT22;37886;53.174;6.368;2023-05-07T01:50:38;11.80;99.90
51839;DHT22;37886;53.174;6.368;2023-05-07T01:53:04;11.80;99.90
51839;DHT22;37886;53.174;6.368;2023-05-07T01:55:30;11.80;99.90
51839;DHT22;37886;53.174;6.368;2023-05-07T01:57:56;11.80;99.90
51839;DHT22;37886;53.174;6.368;2023-05-07T02:00:22;11.80;99.90
51839;DHT22;37886;53.174;6.368;2023-05-07T02:02:47;11.70;99.90
51839;DHT22;37886;53.174;6.368;2023-05-07T02:05:13;11.70;99.90
51839;DHT22;37886;53.174;6.368;2023-05-07T02:07:39;11.70;99.90
51839;DHT22;37886;53.174;6.368;2023-05-07T02:10:05;11.70;99.90
51839;DHT22;37886;53.174;6.368;2023-05-07T02:12:31;11.60;99.90
51839;DHT22;37886;53.174;6.368;2023-05-07T02:14:57;11.60;99.90
51839;DHT22;37886;53.174;6.368;2023-05-07T02:17:22;11.60;99.90
51839;DHT22;37886;53.174;6.368;2023-05-07T02:19:48;11.60;99.90
51839;DHT22;37886;53.174;6.368;2023-05-07T02:22:14;11.60;99.90
51839;DHT22;37886;53.174;6.368;2023-05-07T02:24:39;11.50;99.90
51839;DHT22;37886;53.174;6.368;2023-05-07T02:27:05;11.50;99.90
51839;DHT22;37886;53.174;6.368;2023-05-07T02:29:31;11.50;99.90
51839;DHT22;37886;53.174;6.368;2023-05-07T02:31:56;11.50;99.90
51839;DHT22;37886;53.174;6.368;2023-05-07T02:34:22;11.50;99.90
51839;DHT22;37886;53.174;6.368;2023-05-07T02:36:47;11.50;99.90
51839;DHT22;37886;53.174;6.368;2023-05-07T02:39:13;11.50;99.90
51839;DHT22;37886;53.174;6.368;2023-05-07T02:41:39;11.40;99.90
51839;DHT22;37886;53.174;6.368;2023-05-07T02:44:05;11.40;99.90
51839;DHT22;37886;53.174;6.368;2023-05-07T02:46:31;11.50;99.90
51839;DHT22;37886;53.174;6.368;2023-05-07T02:48:57;11.40;99.90
51839;DHT22;37886;53.174;6.368;2023-05-07T02:51:23;11.40;99.90
51839;DHT22;37886;53.174;6.368;2023-05-07T02:53:49;11.40;99.90
51839;DHT22;37886;53.174;6.368;2023-05-07T02:56:15;11.40;99.90
51839;DHT22;37886;53.174;6.368;2023-05-07T02:58:40;11.40;99.90
51839;DHT22;37886;53.174;6.368;2023-05-07T03:01:08;11.30;99.90
51839;DHT22;37886;53.174;6.368;2023-05-07T03:03:34;11.30;99.90
51839;DHT22;37886;53.174;6.368;2023-05-07T03:06:00;11.40;99.90
51839;DHT22;37886;53.174;6.368;2023-05-07T03:08:26;11.40;99.90
51839;DHT22;37886;53.174;6.368;2023-05-07T03:10:51;11.40;99.90
51839;DHT22;37886;53.174;6.368;2023-05-07T03:13:17;11.30;99.90
51839;DHT22;37886;53.174;6.368;2023-05-07T03:15:43;11.30;99.90
51839;DHT22;37886;53.174;6.368;2023-05-07T03:18:09;11.30;99.90
51839;DHT22;37886;53.174;6.368;2023-05-07T03:20:34;11.20;99.90
51839;DHT22;37886;53.174;6.368;2023-05-07T03:23:01;11.30;99.90
51839;DHT22;37886;53.174;6.368;2023-05-07T03:25:27;11.30;99.90
51839;DHT22;37886;53.174;6.368;2023-05-07T03:27:53;11.30;99.90
51839;DHT22;37886;53.174;6.368;2023-05-07T03:30:19;11.30;99.90
51839;DHT22;37886;53.174;6.368;2023-05-07T03:32:45;11.30;99.90
51839;DHT22;37886;53.174;6.368;2023-05-07T03:35:11;11.30;99.90
51839;DHT22;37886;53.174;6.368;2023-05-07T03:37:37;11.20;99.90
51839;DHT22;37886;53.174;6.368;2023-05-07T03:40:04;11.30;99.90
51839;DHT22;37886;53.174;6.368;2023-05-07T03:42:30;11.20;99.90
51839;DHT22;37886;53.174;6.368;2023-05-07T03:44:55;11.30;99.90
51839;DHT22;37886;53.174;6.368;2023-05-07T03:47:21;11.20;99.90
51839;DHT22;37886;53.174;6.368;2023-05-07T03:49:47;11.30;99.90
51839;DHT22;37886;53.174;6.368;2023-05-07T03:52:14;11.30;99.90
51839;DHT22;37886;53.174;6.368;2023-05-07T03:54:40;11.20;99.90
51839;DHT22;37886;53.174;6.368;2023-05-07T03:57:06;11.30;99.90
51839;DHT22;37886;53.174;6.368;2023-05-07T03:59:31;11.20;99.90
51839;DHT22;37886;53.174;6.368;2023-05-07T04:01:57;11.20;99.90
51839;DHT22;37886;53.174;6.368;2023-05-07T04:04:23;11.30;99.90
51839;DHT22;37886;53.174;6.368;2023-05-07T04:06:49;11.20;99.90
51839;DHT22;37886;53.174;6.368;2023-05-07T04:09:14;11.30;99.90
51839;DHT22;37886;53.174;6.368;2023-05-07T04:11:40;11.30;99.90
51839;DHT22;37886;53.174;6.368;2023-05-07T04:14:06;11.30;99.90
51839;DHT22;37886;53.174;6.368;2023-05-07T04:16:32;11.30;99.90
51839;DHT22;37886;53.174;6.368;2023-05-07T04:18:57;11.20;99.90
51839;DHT22;37886;53.174;6.368;2023-05-07T04:21:23;11.20;99.90
51839;DHT22;37886;53.174;6.368;2023-05-07T04:23:49;11.20;99.90
51839;DHT22;37886;53.174;6.368;2023-05-07T04:26:15;11.20;99.90
51839;DHT22;37886;53.174;6.368;2023-05-07T04:28:41;11.20;99.90
51839;DHT22;37886;53.174;6.368;2023-05-07T04:31:07;11.20;99.90
51839;DHT22;37886;53.174;6.368;2023-05-07T04:33:33;11.10;99.90
51839;DHT22;37886;53.174;6.368;2023-05-07T04:36:03;11.20;99.90
51839;DHT22;37886;53.174;6.368;2023-05-07T04:38:32;11.10;99.90
51839;DHT22;37886;53.174;6.368;2023-05-07T04:41:05;11.10;99.90
51839;DHT22;37886;53.174;6.368;2023-05-07T04:43:31;11.10;99.90
51839;DHT22;37886;53.174;6.368;2023-05-07T04:45:56;11.10;99.90
51839;DHT22;37886;53.174;6.368;2023-05-07T04:48:22;11.10;99.90
51839;DHT22;37886;53.174;6.368;2023-05-07T04:50:49;11.00;99.90
51839;DHT22;37886;53.174;6.368;2023-05-07T04:53:15;11.10;99.90
51839;DHT22;37886;53.174;6.368;2023-05-07T04:55:40;11.10;99.90
51839;DHT22;37886;53.174;6.368;2023-05-07T04:58:06;11.00;99.90
51839;DHT22;37886;53.174;6.368;2023-05-07T05:00:32;11.00;99.90
51839;DHT22;37886;53.174;6.368;2023-05-07T05:02:58;11.00;99.90
51839;DHT22;37886;53.174;6.368;2023-05-07T05:05:24;11.00;99.90
51839;DHT22;37886;53.174;6.368;2023-05-07T05:07:50;11.00;99.90
51839;DHT22;37886;53.174;6.368;2023-05-07T05:10:17;11.00;99.90
51839;DHT22;37886;53.174;6.368;2023-05-07T05:12:43;11.00;99.90
51839;DHT22;37886;53.174;6.368;2023-05-07T05:15:12;11.00;99.90
51839;DHT22;37886;53.174;6.368;2023-05-07T05:17:38;11.00;99.90
51839;DHT22;37886;53.174;6.368;2023-05-07T05:20:05;11.00;99.90
51839;DHT22;37886;53.174;6.368;2023-05-07T05:22:31;11.00;99.90
51839;DHT22;37886;53.174;6.368;2023-05-07T05:24:57;11.00;99.90
51839;DHT22;37886;53.174;6.368;2023-05-07T05:27:23;11.00;99.90
51839;DHT22;37886;53.174;6.368;2023-05-07T05:29:49;11.00;99.90
51839;DHT22;37886;53.174;6.368;2023-05-07T05:32:14;11.00;99.90
51839;DHT22;37886;53.174;6.368;2023-05-07T05:34:40;11.00;99.90
51839;DHT22;37886;53.174;6.368;2023-05-07T05:37:06;11.00;99.90
51839;DHT22;37886;53.174;6.368;2023-05-07T05:39:32;11.00;99.90
51839;DHT22;37886;53.174;6.368;2023-05-07T05:41:57;11.00;99.90
51839;DHT22;37886;53.174;6.368;2023-05-07T05:44:23;11.00;99.90
51839;DHT22;37886;53.174;6.368;2023-05-07T05:46:49;11.00;99.90
51839;DHT22;37886;53.174;6.368;2023-05-07T05:49:17;11.00;99.90
51839;DHT22;37886;53.174;6.368;2023-05-07T05:51:43;11.00;99.90
51839;DHT22;37886;53.174;6.368;2023-05-07T05:54:09;11.00;99.90
51839;DHT22;37886;53.174;6.368;2023-05-07T05:56:34;11.10;99.90
51839;DHT22;37886;53.174;6.368;2023-05-07T05:59:00;11.10;99.90
51839;DHT22;37886;53.174;6.368;2023-05-07T06:01:26;11.10;99.90
51839;DHT22;37886;53.174;6.368;2023-05-07T06:03:52;11.10;99.90
51839;DHT22;37886;53.174;6.368;2023-05-07T06:06:17;11.20;99.90
51839;DHT22;37886;53.174;6.368;2023-05-07T06:08:43;11.20;99.90
51839;DHT22;37886;53.174;6.368;2023-05-07T06:11:09;11.20;99.90
51839;DHT22;37886;53.174;6.368;2023-05-07T06:13:34;11.20;99.90
51839;DHT22;37886;53.174;6.368;2023-05-07T06:16:00;11.20;99.90
51839;DHT22;37886;53.174;6.368;2023-05-07T06:18:26;11.30;99.90
51839;DHT22;37886;53.174;6.368;2023-05-07T06:20:52;11.30;99.90
51839;DHT22;37886;53.174;6.368;2023-05-07T06:23:18;11.40;99.90
51839;DHT22;37886;53.174;6.368;2023-05-07T06:25:50;11.50;99.90
51839;DHT22;37886;53.174;6.368;2023-05-07T06:28:16;11.50;99.90
51839;DHT22;37886;53.174;6.368;2023-05-07T06:30:42;11.60;99.90
51839;DHT22;37886;53.174;6.368;2023-05-07T06:33:08;11.70;99.90
51839;DHT22;37886;53.174;6.368;2023-05-07T06:35:33;11.70;99.90
51839;DHT22;37886;53.174;6.368;2023-05-07T06:38:00;11.70;99.90
51839;DHT22;37886;53.174;6.368;2023-05-07T06:40:26;11.70;99.90
51839;DHT22;37886;53.174;6.368;2023-05-07T06:42:52;11.80;99.90
51839;DHT22;37886;53.174;6.368;2023-05-07T06:45:17;11.80;99.90
51839;DHT22;37886;53.174;6.368;2023-05-07T06:47:43;11.70;99.90
51839;DHT22;37886;53.174;6.368;2023-05-07T06:50:09;11.80;99.90
51839;DHT22;37886;53.174;6.368;2023-05-07T06:52:35;11.80;99.90
51839;DHT22;37886;53.174;6.368;2023-05-07T06:55:01;11.80;99.90
51839;DHT22;37886;53.174;6.368;2023-05-07T06:57:27;11.80;99.90
51839;DHT22;37886;53.174;6.368;2023-05-07T06:59:52;11.70;99.90
51839;DHT22;37886;53.174;6.368;2023-05-07T07:02:18;11.70;99.90
51839;DHT22;37886;53.174;6.368;2023-05-07T07:04:44;11.80;99.90
51839;DHT22;37886;53.174;6.368;2023-05-07T07:07:10;11.70;99.90
51839;DHT22;37886;53.174;6.368;2023-05-07T07:09:36;11.70;99.90
51839;DHT22;37886;53.174;6.368;2023-05-07T07:12:02;11.70;99.90
51839;DHT22;37886;53.174;6.368;2023-05-07T07:14:28;11.70;99.90
51839;DHT22;37886;53.174;6.368;2023-05-07T07:16:53;11.70;99.90
51839;DHT22;37886;53.174;6.368;2023-05-07T07:19:19;11.70;99.90
51839;DHT22;37886;53.174;6.368;2023-05-07T07:21:46;11.70;99.90
51839;DHT22;37886;53.174;6.368;2023-05-07T07:24:13;11.70;99.90
51839;DHT22;37886;53.174;6.368;2023-05-07T07:26:44;11.70;99.90
51839;DHT22;37886;53.174;6.368;2023-05-07T07:29:10;11.70;99.90
51839;DHT22;37886;53.174;6.368;2023-05-07T07:31:36;11.70;99.90
51839;DHT22;37886;53.174;6.368;2023-05-07T07:34:01;11.80;99.90
51839;DHT22;37886;53.174;6.368;2023-05-07T07:36:27;11.90;99.90
51839;DHT22;37886;53.174;6.368;2023-05-07T07:38:53;11.90;99.90
51839;DHT22;37886;53.174;6.368;2023-05-07T07:41:19;11.90;99.90
51839;DHT22;37886;53.174;6.368;2023-05-07T07:43:45;12.00;99.90
51839;DHT22;37886;53.174;6.368;2023-05-07T07:46:12;12.00;99.90
51839;DHT22;37886;53.174;6.368;2023-05-07T07:48:37;12.10;99.90
51839;DHT22;37886;53.174;6.368;2023-05-07T07:51:03;12.10;99.90
51839;DHT22;37886;53.174;6.368;2023-05-07T07:53:29;12.20;99.90
51839;DHT22;37886;53.174;6.368;2023-05-07T07:55:55;12.10;99.90
51839;DHT22;37886;53.174;6.368;2023-05-07T07:58:21;12.00;99.90
51839;DHT22;37886;53.174;6.368;2023-05-07T08:00:47;12.10;99.90
51839;DHT22;37886;53.174;6.368;2023-05-07T08:03:14;12.20;99.90
51839;DHT22;37886;53.174;6.368;2023-05-07T08:05:42;12.20;99.90
51839;DHT22;37886;53.174;6.368;2023-05-07T08:08:08;12.30;99.90
51839;DHT22;37886;53.174;6.368;2023-05-07T08:10:33;12.30;99.90
51839;DHT22;37886;53.174;6.368;2023-05-07T08:13:00;12.40;99.90
51839;DHT22;37886;53.174;6.368;2023-05-07T08:15:26;12.50;99.90
51839;DHT22;37886;53.174;6.368;2023-05-07T08:17:52;12.50;99.90
51839;DHT22;37886;53.174;6.368;2023-05-07T08:20:18;12.60;99.90
51839;DHT22;37886;53.174;6.368;2023-05-07T08:22:43;12.70;99.90
51839;DHT22;37886;53.174;6.368;2023-05-07T08:25:09;12.80;99.90
51839;DHT22;37886;53.174;6.368;2023-05-07T08:27:35;12.80;99.90
51839;DHT22;37886;53.174;6.368;2023-05-07T08:30:03;13.00;99.90
51839;DHT22;37886;53.174;6.368;2023-05-07T08:32:29;13.10;99.90
51839;DHT22;37886;53.174;6.368;2023-05-07T08:34:55;13.20;99.90
51839;DHT22;37886;53.174;6.368;2023-05-07T08:37:20;13.10;99.90
51839;DHT22;37886;53.174;6.368;2023-05-07T08:39:46;13.00;99.90
51839;DHT22;37886;53.174;6.368;2023-05-07T08:42:12;13.10;99.90
51839;DHT22;37886;53.174;6.368;2023-05-07T08:44:45;13.10;99.90
51839;DHT22;37886;53.174;6.368;2023-05-07T08:47:14;13.30;99.90
51839;DHT22;37886;53.174;6.368;2023-05-07T08:49:39;13.60;99.90
51839;DHT22;37886;53.174;6.368;2023-05-07T08:52:05;13.70;99.90
51839;DHT22;37886;53.174;6.368;2023-05-07T08:54:31;13.70;99.90
51839;DHT22;37886;53.174;6.368;2023-05-07T08:56:57;13.70;99.90
51839;DHT22;37886;53.174;6.368;2023-05-07T08:59:23;13.70;99.90
51839;DHT22;37886;53.174;6.368;2023-05-07T09:01:49;13.60;99.90
51839;DHT22;37886;53.174;6.368;2023-05-07T09:04:15;13.60;99.90
51839;DHT22;37886;53.174;6.368;2023-05-07T09:06:40;13.70;99.90
51839;DHT22;37886;53.174;6.368;2023-05-07T09:09:07;13.60;99.90
51839;DHT22;37886;53.174;6.368;2023-05-07T09:11:33;13.80;99.90
51839;DHT22;37886;53.174;6.368;2023-05-07T09:13:59;14.00;99.90
51839;DHT22;37886;53.174;6.368;2023-05-07T09:16:28;14.20;99.90
51839;DHT22;37886;53.174;6.368;2023-05-07T09:18:54;14.40;99.90
51839;DHT22;37886;53.174;6.368;2023-05-07T09:21:21;14.40;99.90
51839;DHT22;37886;53.174;6.368;2023-05-07T09:23:50;14.40;99.90
51839;DHT22;37886;53.174;6.368;2023-05-07T09:26:16;14.40;99.90
51839;DHT22;37886;53.174;6.368;2023-05-07T09:28:42;14.70;99.90
51839;DHT22;37886;53.174;6.368;2023-05-07T09:31:08;14.70;99.90
51839;DHT22;37886;53.174;6.368;2023-05-07T09:33:35;14.80;99.90
51839;DHT22;37886;53.174;6.368;2023-05-07T09:36:04;15.00;99.90
51839;DHT22;37886;53.174;6.368;2023-05-07T09:38:32;15.10;99.90
51839;DHT22;37886;53.174;6.368;2023-05-07T09:41:06;15.30;99.90
51839;DHT22;37886;53.174;6.368;2023-05-07T09:43:33;15.40;99.90
51839;DHT22;37886;53.174;6.368;2023-05-07T09:46:03;15.60;99.90
51839;DHT22;37886;53.174;6.368;2023-05-07T09:48:29;15.50;99.90
51839;DHT22;37886;53.174;6.368;2023-05-07T09:50:56;15.40;99.90
51839;DHT22;37886;53.174;6.368;2023-05-07T09:53:25;15.40;99.90
51839;DHT22;37886;53.174;6.368;2023-05-07T09:55:52;15.40;99.90
51839;DHT22;37886;53.174;6.368;2023-05-07T09:58:18;15.50;99.90
51839;DHT22;37886;53.174;6.368;2023-05-07T10:00:45;15.60;99.90
51839;DHT22;37886;53.174;6.368;2023-05-07T10:03:11;15.80;99.90
51839;DHT22;37886;53.174;6.368;2023-05-07T10:05:38;16.00;99.90
51839;DHT22;37886;53.174;6.368;2023-05-07T10:08:05;16.30;99.90
51839;DHT22;37886;53.174;6.368;2023-05-07T10:10:32;16.20;99.90
51839;DHT22;37886;53.174;6.368;2023-05-07T10:12:59;16.20;99.90
51839;DHT22;37886;53.174;6.368;2023-05-07T10:15:26;16.40;99.90
51839;DHT22;37886;53.174;6.368;2023-05-07T10:17:53;16.50;99.90
51839;DHT22;37886;53.174;6.368;2023-05-07T10:20:19;16.60;99.90
51839;DHT22;37886;53.174;6.368;2023-05-07T10:22:47;16.70;99.90
51839;DHT22;37886;53.174;6.368;2023-05-07T10:25:22;16.80;99.90
51839;DHT22;37886;53.174;6.368;2023-05-07T10:27:50;16.80;99.90
51839;DHT22;37886;53.174;6.368;2023-05-07T10:30:58;17.10;99.90
51839;DHT22;37886;53.174;6.368;2023-05-07T10:33:25;17.20;99.90
51839;DHT22;37886;53.174;6.368;2023-05-07T10:35:57;17.50;99.90
51839;DHT22;37886;53.174;6.368;2023-05-07T10:38:24;17.40;99.90
51839;DHT22;37886;53.174;6.368;2023-05-07T10:40:51;17.60;99.90
51839;DHT22;37886;53.174;6.368;2023-05-07T10:43:17;17.80;99.90
51839;DHT22;37886;53.174;6.368;2023-05-07T10:45:42;17.60;99.90
51839;DHT22;37886;53.174;6.368;2023-05-07T10:48:12;17.60;99.90
51839;DHT22;37886;53.174;6.368;2023-05-07T10:50:39;17.80;99.90
51839;DHT22;37886;53.174;6.368;2023-05-07T10:55:48;17.50;99.90
51839;DHT22;37886;53.174;6.368;2023-05-07T10:58:28;17.10;99.90
51839;DHT22;37886;53.174;6.368;2023-05-07T11:01:01;17.10;99.90
51839;DHT22;37886;53.174;6.368;2023-05-07T11:03:27;17.10;99.90
51839;DHT22;37886;53.174;6.368;2023-05-07T11:06:17;17.20;99.90
51839;DHT22;37886;53.174;6.368;2023-05-07T11:08:52;17.40;99.90
51839;DHT22;37886;53.174;6.368;2023-05-07T11:11:18;18.00;99.90
51839;DHT22;37886;53.174;6.368;2023-05-07T11:13:48;17.90;99.90
51839;DHT22;37886;53.174;6.368;2023-05-07T11:16:24;17.70;99.90
51839;DHT22;37886;53.174;6.368;2023-05-07T11:18:55;17.70;99.90
51839;DHT22;37886;53.174;6.368;2023-05-07T11:21:35;18.00;99.90
51839;DHT22;37886;53.174;6.368;2023-05-07T11:24:02;18.50;99.90
51839;DHT22;37886;53.174;6.368;2023-05-07T11:26:30;18.80;99.90
51839;DHT22;37886;53.174;6.368;2023-05-07T11:28:57;18.80;99.90
51839;DHT22;37886;53.174;6.368;2023-05-07T11:31:26;18.80;99.90
51839;DHT22;37886;53.174;6.368;2023-05-07T11:33:54;18.50;99.90
51839;DHT22;37886;53.174;6.368;2023-05-07T11:36:22;18.70;99.90
51839;DHT22;37886;53.174;6.368;2023-05-07T11:38:48;19.40;99.90
51839;DHT22;37886;53.174;6.368;2023-05-07T11:41:16;19.80;99.90
51839;DHT22;37886;53.174;6.368;2023-05-07T11:43:58;20.00;99.90
51839;DHT22;37886;53.174;6.368;2023-05-07T11:46:24;20.10;99.90
51839;DHT22;37886;53.174;6.368;2023-05-07T11:48:50;20.60;99.90
51839;DHT22;37886;53.174;6.368;2023-05-07T11:51:22;20.20;99.90
51839;DHT22;37886;53.174;6.368;2023-05-07T11:53:49;20.40;99.90
51839;DHT22;37886;53.174;6.368;2023-05-07T11:56:17;20.90;99.90
51839;DHT22;37886;53.174;6.368;2023-05-07T11:58:44;20.30;99.90
51839;DHT22;37886;53.174;6.368;2023-05-07T12:01:13;20.30;99.90
51839;DHT22;37886;53.174;6.368;2023-05-07T12:03:43;19.70;99.90
51839;DHT22;37886;53.174;6.368;2023-05-07T12:06:10;19.40;99.90
51839;DHT22;37886;53.174;6.368;2023-05-07T12:08:41;19.40;99.90
51839;DHT22;37886;53.174;6.368;2023-05-07T12:11:08;19.10;99.90
51839;DHT22;37886;53.174;6.368;2023-05-07T12:13:34;19.00;99.90
51839;DHT22;37886;53.174;6.368;2023-05-07T12:16:00;19.10;99.90
51839;DHT22;37886;53.174;6.368;2023-05-07T12:18:29;18.90;99.90
51839;DHT22;37886;53.174;6.368;2023-05-07T12:20:55;19.30;99.90
51839;DHT22;37886;53.174;6.368;2023-05-07T12:23:22;19.70;99.90
51839;DHT22;37886;53.174;6.368;2023-05-07T12:25:48;20.10;99.90
51839;DHT22;37886;53.174;6.368;2023-05-07T12:28:18;20.60;99.90
51839;DHT22;37886;53.174;6.368;2023-05-07T12:30:46;21.00;99.90
51839;DHT22;37886;53.174;6.368;2023-05-07T12:33:12;20.40;99.90
51839;DHT22;37886;53.174;6.368;2023-05-07T12:35:40;19.60;99.90
51839;DHT22;37886;53.174;6.368;2023-05-07T12:38:17;19.30;99.90
51839;DHT22;37886;53.174;6.368;2023-05-07T12:40:45;19.40;99.90
51839;DHT22;37886;53.174;6.368;2023-05-07T12:43:20;19.80;99.90
51839;DHT22;37886;53.174;6.368;2023-05-07T12:45:50;20.00;99.90
51839;DHT22;37886;53.174;6.368;2023-05-07T12:48:16;20.50;99.90
51839;DHT22;37886;53.174;6.368;2023-05-07T12:50:42;20.80;99.90
51839;DHT22;37886;53.174;6.368;2023-05-07T12:53:09;20.60;99.90
51839;DHT22;37886;53.174;6.368;2023-05-07T12:55:54;20.70;99.90
51839;DHT22;37886;53.174;6.368;2023-05-07T12:58:24;21.00;99.90
51839;DHT22;37886;53.174;6.368;2023-05-07T13:00:51;20.90;99.90
51839;DHT22;37886;53.174;6.368;2023-05-07T13:03:28;21.40;99.90
51839;DHT22;37886;53.174;6.368;2023-05-07T13:06:02;21.30;99.90
51839;DHT22;37886;53.174;6.368;2023-05-07T13:08:33;21.10;99.90
51839;DHT22;37886;53.174;6.368;2023-05-07T13:11:02;21.30;99.90
51839;DHT22;37886;53.174;6.368;2023-05-07T13:13:30;21.30;99.90
51839;DHT22;37886;53.174;6.368;2023-05-07T13:15:56;21.60;99.90
51839;DHT22;37886;53.174;6.368;2023-05-07T13:18:22;21.90;99.90
51839;DHT22;37886;53.174;6.368;2023-05-07T13:20:47;22.40;99.90
51839;DHT22;37886;53.174;6.368;2023-05-07T13:23:13;22.40;99.90
51839;DHT22;37886;53.174;6.368;2023-05-07T13:25:38;21.80;99.90
51839;DHT22;37886;53.174;6.368;2023-05-07T13:28:05;21.70;99.90
51839;DHT22;37886;53.174;6.368;2023-05-07T13:30:31;21.80;99.90
51839;DHT22;37886;53.174;6.368;2023-05-07T13:32:56;21.50;99.90
51839;DHT22;37886;53.174;6.368;2023-05-07T13:35:22;21.80;99.90
51839;DHT22;37886;53.174;6.368;2023-05-07T13:37:48;21.70;99.90
51839;DHT22;37886;53.174;6.368;2023-05-07T13:40:15;22.20;99.90
51839;DHT22;37886;53.174;6.368;2023-05-07T13:42:41;22.20;99.90
51839;DHT22;37886;53.174;6.368;2023-05-07T13:45:07;22.30;99.90
51839;DHT22;37886;53.174;6.368;2023-05-07T13:47:33;23.00;99.90
51839;DHT22;37886;53.174;6.368;2023-05-07T13:49:59;22.70;99.90
51839;DHT22;37886;53.174;6.368;2023-05-07T13:52:25;23.00;99.90
51839;DHT22;37886;53.174;6.368;2023-05-07T13:54:51;22.70;99.90
51839;DHT22;37886;53.174;6.368;2023-05-07T13:57:18;22.90;99.90
51839;DHT22;37886;53.174;6.368;2023-05-07T13:59:44;22.70;99.90
51839;DHT22;37886;53.174;6.368;2023-05-07T14:02:09;22.50;99.90
51839;DHT22;37886;53.174;6.368;2023-05-07T14:04:36;22.10;99.90
51839;DHT22;37886;53.174;6.368;2023-05-07T14:07:03;21.60;99.90
51839;DHT22;37886;53.174;6.368;2023-05-07T14:09:28;21.50;99.90
51839;DHT22;37886;53.174;6.368;2023-05-07T14:11:54;21.60;99.90
51839;DHT22;37886;53.174;6.368;2023-05-07T14:14:20;21.30;99.90
51839;DHT22;37886;53.174;6.368;2023-05-07T14:16:45;21.20;99.90
51839;DHT22;37886;53.174;6.368;2023-05-07T14:19:12;21.40;99.90
51839;DHT22;37886;53.174;6.368;2023-05-07T14:21:37;21.60;99.90
51839;DHT22;37886;53.174;6.368;2023-05-07T14:24:05;21.30;99.90
51839;DHT22;37886;53.174;6.368;2023-05-07T14:26:31;21.20;99.90
51839;DHT22;37886;53.174;6.368;2023-05-07T14:28:56;21.10;99.90
51839;DHT22;37886;53.174;6.368;2023-05-07T14:31:24;21.30;99.90
51839;DHT22;37886;53.174;6.368;2023-05-07T14:33:50;21.30;99.90
51839;DHT22;37886;53.174;6.368;2023-05-07T14:36:16;21.40;99.90
51839;DHT22;37886;53.174;6.368;2023-05-07T14:38:43;21.50;99.90
51839;DHT22;37886;53.174;6.368;2023-05-07T14:41:08;21.70;99.90
51839;DHT22;37886;53.174;6.368;2023-05-07T14:43:34;21.70;99.90
51839;DHT22;37886;53.174;6.368;2023-05-07T14:46:00;21.80;99.90
51839;DHT22;37886;53.174;6.368;2023-05-07T14:48:25;21.60;99.90
51839;DHT22;37886;53.174;6.368;2023-05-07T14:50:51;22.40;99.90
51839;DHT22;37886;53.174;6.368;2023-05-07T14:53:16;22.50;99.90
51839;DHT22;37886;53.174;6.368;2023-05-07T14:55:42;22.60;99.90
51839;DHT22;37886;53.174;6.368;2023-05-07T14:58:08;22.70;99.90
51839;DHT22;37886;53.174;6.368;2023-05-07T15:00:34;22.20;99.90
51839;DHT22;37886;53.174;6.368;2023-05-07T15:03:07;22.10;99.90
51839;DHT22;37886;53.174;6.368;2023-05-07T15:05:33;22.40;99.90
51839;DHT22;37886;53.174;6.368;2023-05-07T15:07:59;22.60;99.90
51839;DHT22;37886;53.174;6.368;2023-05-07T15:10:25;23.20;99.90
51839;DHT22;37886;53.174;6.368;2023-05-07T15:12:51;22.90;99.90
51839;DHT22;37886;53.174;6.368;2023-05-07T15:15:17;22.90;99.90
51839;DHT22;37886;53.174;6.368;2023-05-07T15:17:43;22.90;99.90
51839;DHT22;37886;53.174;6.368;2023-05-07T15:20:08;23.10;99.90
51839;DHT22;37886;53.174;6.368;2023-05-07T15:22:35;23.10;99.90
51839;DHT22;37886;53.174;6.368;2023-05-07T15:25:03;23.00;99.90
51839;DHT22;37886;53.174;6.368;2023-05-07T15:27:30;22.40;99.90
51839;DHT22;37886;53.174;6.368;2023-05-07T15:29:56;23.20;99.90